createdAt,value
2022-08-12T00:00:57.423Z,7.35
2022-08-12T00:04:01.848Z,7.43
2022-08-12T00:07:06.845Z,7.45
2022-08-12T00:10:11.912Z,7.10
2022-08-12T00:13:17.110Z,7.47
2022-08-12T00:16:22.564Z,7.25
2022-08-12T00:19:26.993Z,6.72
2022-08-12T00:22:32.780Z,7.13
2022-08-12T00:26:01.415Z,7.35
2022-08-12T00:32:06.566Z,6.85
2022-08-12T00:35:17.171Z,8.00
2022-08-12T00:38:23.093Z,7.57
2022-08-12T00:41:30.719Z,8.40
2022-08-12T00:44:19.239Z,7.13
2022-08-12T00:47:24.529Z,7.60
2022-08-12T00:50:18.677Z,7.78
2022-08-12T00:53:07.103Z,7.88
2022-08-12T00:55:58.285Z,8.02
2022-08-12T00:58:48.402Z,7.45
2022-08-12T01:02:10.459Z,9.43
2022-08-12T01:05:06.480Z,9.15
2022-08-12T01:08:12.140Z,8.73
2022-08-12T01:11:17.379Z,8.00
2022-08-12T01:14:04.333Z,8.20
2022-08-12T01:16:52.765Z,8.32
2022-08-12T01:19:40.338Z,7.78
2022-08-12T01:22:54.256Z,7.03
2022-08-12T01:25:56.027Z,8.10
2022-08-12T01:28:44.772Z,7.15
2022-08-12T01:31:31.288Z,7.78
2022-08-12T01:34:35.692Z,7.07
2022-08-12T01:37:25.734Z,7.70
2022-08-12T01:40:36.829Z,7.10
2022-08-12T01:43:22.160Z,7.25
2022-08-12T01:46:31.007Z,7.88
2022-08-12T01:49:21.785Z,7.32
2022-08-12T01:52:22.123Z,7.45
2022-08-12T01:55:11.312Z,7.90
2022-08-12T01:58:11.599Z,7.97
2022-08-12T02:01:06.623Z,7.10
2022-08-12T02:04:34.519Z,7.47
2022-08-12T02:07:48.367Z,7.00
2022-08-12T02:11:18.809Z,7.47
2022-08-12T02:14:42.008Z,7.25
2022-08-12T02:17:57.126Z,7.38
2022-08-12T02:21:00.213Z,7.80
2022-08-12T02:23:47.516Z,8.38
2022-08-12T02:26:39.529Z,6.93
2022-08-12T02:29:26.656Z,7.68
2022-08-12T02:32:14.454Z,7.72
2022-08-12T02:35:01.772Z,7.65
2022-08-12T02:37:52.375Z,7.85
2022-08-12T02:40:43.196Z,6.65
2022-08-12T02:43:51.218Z,7.00
2022-08-12T02:46:39.147Z,6.85
2022-08-12T02:49:40.746Z,7.93
2022-08-12T02:52:27.401Z,7.07
2022-08-12T02:55:28.575Z,8.63
2022-08-12T02:58:21.301Z,7.65
2022-08-12T03:01:25.002Z,8.45
2022-08-12T03:04:20.869Z,7.32
2022-08-12T03:07:20.115Z,7.43
2022-08-12T03:10:11.358Z,7.80
2022-08-12T03:13:04.253Z,7.97
2022-08-12T03:15:50.549Z,7.28
2022-08-12T03:18:37.671Z,7.78
2022-08-12T03:21:53.063Z,7.35
2022-08-12T03:24:34.800Z,7.93
2022-08-12T03:27:22.857Z,7.35
2022-08-12T03:30:09.268Z,7.18
2022-08-12T03:33:00.220Z,6.72
2022-08-12T03:35:47.252Z,7.43
2022-08-12T03:38:43.086Z,8.10
2022-08-12T03:41:35.349Z,7.90
2022-08-12T03:45:05.776Z,7.47
2022-08-12T03:48:36.863Z,7.20
2022-08-12T03:51:41.656Z,7.60
2022-08-12T03:54:46.548Z,7.45
2022-08-12T03:57:51.301Z,7.88
2022-08-12T04:00:37.775Z,8.43
2022-08-12T04:03:43.450Z,7.45
2022-08-12T04:06:34.906Z,8.20
2022-08-12T04:09:22.723Z,8.63
2022-08-12T04:12:35.703Z,8.40
2022-08-12T04:15:25.939Z,8.57
2022-08-12T04:18:13.306Z,8.00
2022-08-12T04:21:01.571Z,7.05
2022-08-12T04:23:48.961Z,8.65
2022-08-12T04:26:39.950Z,9.43
2022-08-12T04:30:31.969Z,9.07
2022-08-12T04:32:37.679Z,8.13
2022-08-12T04:38:14.508Z,8.88
2022-08-12T04:41:01.470Z,7.30
2022-08-12T04:43:59.886Z,9.35
2022-08-12T04:46:48.563Z,9.05
2022-08-12T04:49:35.691Z,9.48
2022-08-12T04:52:22.139Z,8.80
2022-08-12T04:55:12.959Z,9.55
2022-08-12T04:57:59.116Z,8.35
2022-08-12T05:00:47.675Z,9.07
2022-08-12T05:03:46.088Z,7.75
2022-08-12T05:06:33.003Z,8.88
2022-08-12T05:09:19.641Z,8.48
2022-08-12T05:12:08.816Z,8.93
2022-08-12T05:14:55.914Z,8.75
2022-08-12T05:17:43.585Z,8.93
2022-08-12T05:20:30.805Z,8.38
2022-08-12T05:23:21.474Z,7.88
2022-08-12T05:26:07.607Z,9.13
2022-08-12T05:28:54.285Z,8.25
2022-08-12T05:31:48.127Z,8.38
2022-08-12T05:34:34.813Z,9.15
2022-08-12T05:37:23.671Z,7.93
2022-08-12T05:40:11.422Z,8.63
2022-08-12T05:42:58.027Z,9.95
2022-08-12T05:45:45.489Z,8.55
2022-08-12T05:48:32.459Z,7.95
2022-08-12T05:51:18.895Z,8.63
2022-08-12T05:54:05.901Z,7.80
2022-08-12T05:56:52.139Z,8.60
2022-08-12T05:59:43.793Z,8.75
2022-08-12T06:02:30.163Z,8.38
2022-08-12T06:05:16.364Z,8.13
2022-08-12T06:08:07.576Z,8.18
2022-08-12T06:10:53.749Z,8.05
2022-08-12T06:13:54.188Z,8.95
2022-08-12T06:16:40.481Z,8.90
2022-08-12T06:20:28.466Z,8.18
2022-08-12T06:22:38.704Z,9.05
2022-08-12T06:25:27.777Z,8.98
2022-08-12T06:28:17.320Z,8.48
2022-08-12T06:35:26.330Z,9.60
2022-08-12T06:37:18.904Z,9.38
2022-08-12T06:40:06.721Z,9.48
2022-08-12T06:42:52.932Z,10.00
2022-08-12T06:45:46.801Z,9.57
2022-08-12T06:48:33.214Z,9.85
2022-08-12T06:51:20.792Z,10.32
2022-08-12T06:54:07.441Z,10.45
2022-08-12T06:57:04.780Z,8.95
2022-08-12T07:00:01.512Z,10.05
2022-08-12T07:02:47.824Z,9.63
2022-08-12T07:05:36.718Z,10.70
2022-08-12T07:08:23.684Z,10.13
2022-08-12T07:11:13.261Z,8.85
2022-08-12T07:14:12.651Z,10.77
2022-08-12T07:17:02.335Z,10.00
2022-08-12T07:19:54.173Z,9.60
2022-08-12T07:22:41.739Z,10.30
2022-08-12T07:25:40.482Z,9.98
2022-08-12T07:28:35.755Z,9.98
2022-08-12T07:31:21.523Z,9.73
2022-08-12T07:34:07.763Z,8.90
2022-08-12T07:36:53.980Z,9.60
2022-08-12T07:39:58.709Z,8.65
2022-08-12T07:42:46.545Z,9.60
2022-08-12T07:45:32.533Z,9.43
2022-08-12T07:48:18.480Z,8.30
2022-08-12T07:51:05.088Z,8.90
2022-08-12T07:54:00.454Z,7.43
2022-08-12T07:56:50.033Z,7.80
2022-08-12T07:59:36.108Z,7.70
2022-08-12T08:02:22.330Z,8.10
2022-08-12T08:05:13.267Z,9.68
2022-08-12T08:08:02.474Z,8.15
2022-08-12T08:10:50.172Z,8.88
2022-08-12T08:13:38.924Z,7.35
2022-08-12T08:16:25.382Z,7.45
2022-08-12T08:19:24.054Z,6.80
2022-08-12T08:22:10.594Z,6.70
2022-08-12T08:24:58.522Z,6.75
2022-08-12T08:27:47.025Z,6.40
2022-08-12T08:30:34.640Z,5.70
2022-08-12T08:33:23.641Z,5.53
2022-08-12T08:36:27.425Z,5.85
2022-08-12T08:39:17.095Z,6.20
2022-08-12T08:42:21.556Z,5.75
2022-08-12T08:45:13.000Z,6.30
2022-08-12T08:48:00.578Z,5.22
2022-08-12T08:50:46.574Z,5.60
2022-08-12T08:53:52.804Z,5.90
2022-08-12T08:56:50.126Z,5.13
2022-08-12T08:59:36.611Z,5.15
2022-08-12T09:02:22.633Z,4.72
2022-08-12T09:05:16.292Z,5.60
2022-08-12T09:08:14.506Z,4.80
2022-08-12T09:14:30.229Z,4.82
2022-08-12T09:17:21.330Z,5.32
2022-08-12T09:20:09.483Z,5.05
2022-08-12T09:22:57.575Z,4.88
2022-08-12T09:25:48.794Z,5.22
2022-08-12T09:28:37.158Z,4.70
2022-08-12T09:32:08.006Z,5.15
2022-08-12T09:34:33.942Z,4.95
2022-08-12T09:37:28.347Z,4.80
2022-08-12T09:41:02.518Z,5.35
2022-08-12T09:44:05.637Z,4.45
2022-08-12T09:46:52.420Z,4.40
2022-08-12T09:49:42.614Z,3.97
2022-08-12T09:52:32.024Z,4.47
2022-08-12T09:56:05.523Z,4.80
2022-08-12T09:58:56.855Z,4.40
2022-08-12T10:02:45.018Z,4.82
2022-08-12T10:04:51.698Z,4.43
2022-08-12T10:07:40.685Z,4.70
2022-08-12T10:10:30.716Z,4.50
2022-08-12T10:13:41.758Z,4.70
2022-08-12T10:16:38.750Z,4.40
2022-08-12T10:19:36.181Z,4.60
2022-08-12T10:22:39.475Z,5.05
2022-08-12T10:26:33.710Z,4.68
2022-08-12T10:30:01.112Z,5.30
2022-08-12T10:32:45.540Z,4.82
2022-08-12T10:35:37.700Z,4.32
2022-08-12T10:38:37.926Z,4.85
2022-08-12T10:41:57.730Z,5.25
2022-08-12T10:44:46.870Z,5.30
2022-08-12T10:48:07.625Z,4.50
2022-08-12T10:51:01.778Z,4.75
2022-08-12T10:53:48.194Z,4.35
2022-08-12T10:56:40.550Z,5.13
2022-08-12T11:00:31.449Z,4.35
2022-08-12T11:04:27.373Z,3.95
2022-08-12T11:07:07.347Z,5.43
2022-08-12T11:08:48.318Z,4.15
2022-08-12T11:12:34.713Z,3.90
2022-08-12T11:14:49.357Z,4.22
2022-08-12T11:17:52.094Z,4.25
2022-08-12T11:20:39.593Z,4.32
2022-08-12T11:23:36.893Z,4.40
2022-08-12T11:26:24.036Z,4.00
2022-08-12T11:29:22.090Z,4.22
2022-08-12T11:32:08.818Z,3.80
2022-08-12T11:34:55.472Z,4.15
2022-08-12T11:37:57.758Z,4.25
2022-08-12T11:40:45.122Z,3.63
2022-08-12T11:43:32.483Z,4.15
2022-08-12T11:46:38.213Z,4.03
2022-08-12T11:49:31.345Z,3.75
2022-08-12T11:52:55.552Z,3.40
2022-08-12T11:55:27.472Z,3.80
2022-08-12T11:59:08.438Z,3.88
2022-08-12T12:02:03.412Z,3.75
2022-08-12T12:04:29.453Z,3.78
2022-08-12T12:07:15.986Z,3.70
2022-08-12T12:10:02.123Z,3.33
2022-08-12T12:12:49.927Z,3.15
2022-08-12T12:15:40.987Z,3.38
2022-08-12T12:18:30.768Z,3.60
2022-08-12T12:21:17.373Z,3.28
2022-08-12T12:24:03.564Z,3.55
2022-08-12T12:27:00.133Z,3.70
2022-08-12T12:30:19.850Z,3.63
2022-08-12T12:32:54.038Z,3.50
2022-08-12T12:36:18.135Z,3.20
2022-08-12T12:38:46.764Z,3.72
2022-08-12T12:42:42.022Z,3.67
2022-08-12T12:44:42.105Z,3.70
2022-08-12T12:47:37.315Z,3.45
2022-08-12T12:50:35.446Z,3.53
2022-08-12T12:54:06.812Z,3.45
2022-08-12T12:56:34.103Z,2.90
2022-08-12T12:59:56.512Z,3.72
2022-08-12T13:02:31.760Z,3.33
2022-08-12T13:05:42.750Z,3.15
2022-08-12T13:08:35.756Z,3.80
2022-08-12T13:11:22.922Z,3.90
2022-08-12T13:14:28.108Z,4.07
2022-08-12T13:20:06.745Z,3.85
2022-08-12T13:22:54.042Z,3.40
2022-08-12T13:25:43.210Z,3.85
2022-08-12T13:28:31.167Z,3.38
2022-08-12T13:31:17.410Z,3.45
2022-08-12T13:34:33.905Z,3.22
2022-08-12T13:37:11.754Z,3.65
2022-08-12T13:39:58.061Z,3.35
2022-08-12T13:42:48.745Z,3.13
2022-08-12T13:48:23.710Z,3.65
2022-08-12T13:51:24.179Z,3.83
2022-08-12T13:54:11.767Z,3.22
2022-08-12T13:57:00.177Z,3.42
2022-08-12T13:59:55.039Z,3.47
2022-08-12T14:02:42.503Z,3.45
2022-08-12T14:05:38.405Z,3.42
2022-08-12T14:08:25.469Z,3.20
2022-08-12T14:11:13.143Z,3.13
2022-08-12T14:14:04.682Z,3.88
2022-08-12T14:20:00.657Z,3.70
2022-08-12T14:22:51.527Z,3.22
2022-08-12T14:25:42.351Z,2.95
2022-08-12T14:28:34.922Z,3.45
2022-08-12T14:31:25.661Z,3.25
2022-08-12T14:34:15.632Z,3.60
2022-08-12T14:37:02.400Z,3.20
2022-08-12T14:39:53.594Z,3.10
2022-08-12T14:42:40.225Z,3.25
2022-08-12T14:45:45.373Z,3.15
2022-08-12T14:48:33.573Z,2.90
2022-08-12T14:52:54.615Z,2.88
2022-08-12T14:57:57.001Z,3.03
2022-08-12T15:01:03.237Z,3.17
2022-08-12T15:03:58.202Z,3.45
2022-08-12T15:06:52.645Z,3.50
2022-08-12T15:09:38.994Z,3.20
2022-08-12T15:12:24.964Z,3.35
2022-08-12T15:15:11.417Z,3.30
2022-08-12T15:18:02.122Z,3.38
2022-08-12T15:20:49.510Z,3.15
2022-08-12T15:23:45.775Z,2.88
2022-08-12T15:26:42.714Z,3.33
2022-08-12T15:29:30.059Z,3.58
2022-08-12T15:32:17.975Z,3.10
2022-08-12T15:35:19.420Z,3.20
2022-08-12T15:38:09.574Z,3.17
2022-08-12T15:44:15.955Z,3.35
2022-08-12T15:46:54.979Z,2.85
2022-08-12T15:49:54.130Z,3.28
2022-08-12T15:52:46.561Z,3.28
2022-08-12T15:55:36.116Z,2.88
2022-08-12T15:58:33.834Z,3.17
2022-08-12T16:01:20.973Z,2.83
2022-08-12T16:04:06.846Z,2.90
2022-08-12T16:07:05.568Z,3.17
2022-08-12T16:10:05.930Z,2.88
2022-08-12T16:12:57.987Z,2.65
2022-08-12T16:15:51.121Z,3.00
2022-08-12T16:18:49.835Z,3.63
2022-08-12T16:21:51.818Z,3.10
2022-08-12T16:24:45.948Z,3.15
2022-08-12T16:27:38.658Z,3.42
2022-08-12T16:30:32.740Z,3.53
2022-08-12T16:33:19.765Z,3.33
2022-08-12T16:36:11.393Z,3.80
2022-08-12T16:39:01.363Z,3.88
2022-08-12T16:41:48.303Z,3.65
2022-08-12T16:44:35.677Z,3.28
2022-08-12T16:47:23.289Z,3.13
2022-08-12T16:50:14.473Z,3.47
2022-08-12T16:53:02.358Z,3.10
2022-08-12T16:55:52.039Z,3.45
2022-08-12T16:58:39.427Z,2.90
2022-08-12T17:01:27.468Z,2.83
2022-08-12T17:04:15.485Z,3.40
2022-08-12T17:07:02.973Z,3.72
2022-08-12T17:09:52.222Z,2.88
2022-08-12T17:12:40.052Z,3.20
2022-08-12T17:15:51.320Z,2.78
2022-08-12T17:18:44.008Z,2.97
2022-08-12T17:22:01.122Z,2.97
2022-08-12T17:24:50.610Z,2.70
2022-08-12T17:27:56.959Z,3.20
2022-08-12T17:30:57.220Z,2.92
2022-08-12T17:33:50.469Z,3.15
2022-08-12T17:36:43.249Z,3.28
2022-08-12T17:40:13.766Z,2.88
2022-08-12T17:42:37.928Z,3.20
2022-08-12T17:45:27.314Z,2.65
2022-08-12T17:48:17.574Z,2.45
2022-08-12T17:51:16.035Z,2.90
2022-08-12T17:54:10.543Z,3.33
2022-08-12T17:57:00.197Z,2.92
2022-08-12T17:59:51.149Z,3.08
2022-08-12T18:02:39.181Z,3.13
2022-08-12T18:05:43.464Z,2.97
2022-08-12T18:08:35.986Z,2.95
2022-08-12T18:12:04.341Z,3.42
2022-08-12T18:14:53.798Z,3.30
2022-08-12T18:17:46.917Z,3.50
2022-08-12T18:20:36.634Z,3.30
2022-08-12T18:23:26.413Z,3.42
2022-08-12T18:26:26.876Z,3.60
2022-08-12T18:29:17.146Z,3.10
2022-08-12T18:32:34.784Z,3.08
2022-08-12T18:35:11.288Z,3.78
2022-08-12T18:38:02.709Z,3.33
2022-08-12T18:41:10.046Z,3.42
2022-08-12T18:44:10.436Z,3.38
2022-08-12T18:47:01.460Z,3.33
2022-08-12T18:49:49.752Z,3.83
2022-08-12T18:52:40.414Z,3.70
2022-08-12T18:55:37.703Z,3.80
2022-08-12T18:58:30.325Z,3.58
2022-08-12T19:02:19.586Z,3.10
2022-08-12T19:04:26.399Z,3.85
2022-08-12T19:07:23.752Z,3.80
2022-08-12T19:10:11.494Z,3.22
2022-08-12T19:13:23.143Z,3.75
2022-08-12T19:16:12.339Z,3.88
2022-08-12T19:18:58.885Z,3.92
2022-08-12T19:21:53.462Z,3.58
2022-08-12T19:25:01.530Z,3.63
2022-08-12T19:27:50.626Z,3.72
2022-08-12T19:30:55.907Z,3.88
2022-08-12T19:34:06.332Z,3.63
2022-08-12T19:36:50.932Z,3.80
2022-08-12T19:40:09.950Z,3.90
2022-08-12T19:43:00.759Z,3.42
2022-08-12T19:45:56.597Z,4.03
2022-08-12T19:48:44.859Z,4.05
2022-08-12T19:51:49.465Z,4.10
2022-08-12T19:54:36.033Z,3.72
2022-08-12T19:57:22.517Z,4.30
2022-08-12T20:00:17.355Z,4.57
2022-08-12T20:03:08.329Z,3.97
2022-08-12T20:06:21.738Z,3.45
2022-08-12T20:09:11.758Z,3.65
2022-08-12T20:12:14.315Z,4.88
2022-08-12T20:15:09.467Z,5.05
2022-08-12T20:17:57.303Z,4.00
2022-08-12T20:20:47.683Z,3.83
2022-08-12T20:23:59.780Z,3.90
2022-08-12T20:26:44.570Z,4.20
2022-08-12T20:29:36.550Z,4.10
2022-08-12T20:32:29.498Z,4.93
2022-08-12T20:35:38.942Z,4.55
2022-08-12T20:38:34.188Z,4.57
2022-08-12T20:41:22.183Z,4.70
2022-08-12T20:44:16.841Z,4.70
2022-08-12T20:47:17.931Z,4.90
2022-08-12T20:50:09.213Z,4.95
2022-08-12T20:52:55.585Z,5.25
2022-08-12T20:55:47.054Z,5.43
2022-08-12T20:58:44.229Z,5.28
2022-08-12T21:01:46.198Z,4.90
2022-08-12T21:04:51.515Z,4.75
2022-08-12T21:07:40.876Z,6.18
2022-08-12T21:10:38.614Z,5.22
2022-08-12T21:13:26.617Z,6.13
2022-08-12T21:16:13.877Z,5.70
2022-08-12T21:19:00.827Z,5.38
2022-08-12T21:21:49.929Z,5.88
2022-08-12T21:24:36.655Z,5.97
2022-08-12T21:27:58.600Z,5.82
2022-08-12T21:31:11.526Z,5.43
2022-08-12T21:34:08.690Z,5.90
2022-08-12T21:36:56.681Z,6.03
2022-08-12T21:39:50.658Z,6.10
2022-08-12T21:42:40.053Z,7.45
2022-08-12T21:45:45.410Z,7.85
2022-08-12T21:48:34.163Z,7.10
2022-08-12T21:51:23.496Z,7.57
2022-08-12T21:54:12.143Z,6.90
2022-08-12T21:57:08.984Z,7.32
2022-08-12T21:59:55.373Z,8.95
2022-08-12T22:02:59.607Z,8.32
2022-08-12T22:06:03.965Z,8.20
2022-08-12T22:08:57.724Z,8.27
2022-08-12T22:11:49.110Z,8.13
2022-08-12T22:14:43.125Z,8.35
2022-08-12T22:17:50.081Z,7.70
2022-08-12T22:20:37.111Z,8.82
2022-08-12T22:23:28.370Z,8.32
2022-08-12T22:26:37.561Z,8.18
2022-08-12T22:29:42.582Z,7.88
2022-08-12T22:32:30.079Z,7.43
2022-08-12T22:35:55.438Z,9.02
2022-08-12T22:38:40.716Z,8.82
2022-08-12T22:41:46.204Z,8.45
2022-08-12T22:44:54.885Z,11.38
2022-08-12T22:47:54.719Z,9.60
2022-08-12T22:50:42.185Z,9.18
2022-08-12T22:53:35.822Z,9.32
2022-08-12T22:56:30.832Z,9.07
2022-08-12T22:59:17.447Z,10.38
2022-08-12T23:02:08.428Z,10.38
2022-08-12T23:04:58.526Z,10.40
2022-08-12T23:07:58.657Z,9.95
2022-08-12T23:10:46.383Z,9.73
2022-08-12T23:13:55.463Z,9.23
2022-08-12T23:16:42.582Z,10.50
2022-08-12T23:19:38.054Z,9.57
2022-08-12T23:22:36.870Z,9.30
2022-08-12T23:25:32.663Z,9.73
2022-08-12T23:28:54.944Z,9.43
2022-08-12T23:32:03.416Z,9.98
2022-08-12T23:34:50.563Z,9.50
2022-08-12T23:37:47.783Z,9.75
2022-08-12T23:40:40.307Z,10.35
2022-08-12T23:43:26.780Z,10.65
2022-08-12T23:46:27.217Z,10.50
2022-08-12T23:49:27.158Z,11.20
2022-08-12T23:52:19.541Z,11.05
2022-08-12T23:55:23.732Z,9.55
2022-08-12T23:58:21.311Z,10.00
